Time,TemperatureF,DewpointF,PressureIn,WindDirection,WindDirectionDegrees,WindSpeedMPH,WindSpeedGustMPH,Humidity,HourlyPrecipIn,Conditions,Clouds,dailyrainin,SoftwareType,DateUTC
2013-08-26 00:01:00,63.0,62.4,30.07,East,90,0.0,-999.0,98,-99.99,,,0.00,Acu-Link.com,2013-08-26 04:01:00,
2013-08-26 00:16:00,62.8,62.2,30.09,East,90,0.0,-999.0,98,-99.99,,,0.00,Acu-Link.com,2013-08-26 04:16:00,
2013-08-26 00:32:00,62.4,61.8,30.08,East,90,0.0,-999.0,98,-99.99,,,0.00,Acu-Link.com,2013-08-26 04:32:00,
2013-08-26 00:47:00,62.4,61.8,30.08,WSW,247,0.0,-999.0,98,-99.99,,,0.00,Acu-Link.com,2013-08-26 04:47:00,
2013-08-26 01:02:00,62.2,61.6,30.08,West,270,0.0,-999.0,98,-99.99,,,0.00,Acu-Link.com,2013-08-26 05:02:00,
2013-08-26 01:17:00,62.2,61.6,30.08,NNW,337,0.0,-999.0,98,-99.99,,,0.00,Acu-Link.com,2013-08-26 05:17:00,
2013-08-26 01:33:00,61.9,61.3,30.08,SE,135,0.0,-999.0,98,-99.99,,,0.00,Acu-Link.com,2013-08-26 05:33:00,
2013-08-26 01:48:00,61.9,61.3,30.07,East,90,0.0,-999.0,98,-99.99,,,0.00,Acu-Link.com,2013-08-26 05:48:00,
2013-08-26 02:03:00,61.3,60.7,30.07,East,90,0.0,-999.0,98,-99.99,,,0.00,Acu-Link.com,2013-08-26 06:03:00,
2013-08-26 02:18:00,61.5,60.9,30.07,South,180,0.0,-999.0,98,-99.99,,,0.00,Acu-Link.com,2013-08-26 06:18:00,
2013-08-26 02:34:00,61.2,60.6,30.06,WSW,247,0.0,-999.0,98,-99.99,,,0.00,Acu-Link.com,2013-08-26 06:34:00,
2013-08-26 02:49:00,61.2,60.6,30.07,SSW,202,0.0,-999.0,98,-99.99,,,0.00,Acu-Link.com,2013-08-26 06:49:00,
2013-08-26 03:05:00,61.0,60.4,30.06,SSW,202,0.0,-999.0,98,-99.99,,,0.00,Acu-Link.com,2013-08-26 07:05:00,
2013-08-26 03:20:00,60.8,60.2,30.07,SSW,202,0.0,-999.0,98,-99.99,,,0.00,Acu-Link.com,2013-08-26 07:20:00,
2013-08-26 03:35:00,60.8,60.2,30.07,SSW,202,0.0,-999.0,98,-99.99,,,0.00,Acu-Link.com,2013-08-26 07:35:00,
2013-08-26 03:50:00,60.6,60.0,30.07,SSW,202,0.0,-999.0,98,-99.99,,,0.00,Acu-Link.com,2013-08-26 07:50:00,
2013-08-26 04:06:00,60.4,59.8,30.07,SW,225,0.0,-999.0,98,-99.99,,,0.00,Acu-Link.com,2013-08-26 08:06:00,
2013-08-26 04:21:00,60.3,59.7,30.07,North,0,0.0,-999.0,98,-99.99,,,0.00,Acu-Link.com,2013-08-26 08:21:00,
2013-08-26 04:37:00,60.3,59.7,30.07,North,0,0.0,-999.0,98,-99.99,,,0.00,Acu-Link.com,2013-08-26 08:37:00,
2013-08-26 04:52:00,60.4,59.8,30.06,North,0,0.0,-999.0,98,-99.99,,,0.00,Acu-Link.com,2013-08-26 08:52:00,
2013-08-26 05:07:00,60.1,59.5,30.06,North,0,0.0,-999.0,98,-99.99,,,0.00,Acu-Link.com,2013-08-26 09:07:00,
2013-08-26 05:22:00,60.1,59.5,30.06,North,0,0.0,-999.0,98,-99.99,,,0.00,Acu-Link.com,2013-08-26 09:22:00,
2013-08-26 05:37:00,59.7,59.1,30.06,North,0,0.0,-999.0,98,-99.99,,,0.00,Acu-Link.com,2013-08-26 09:37:00,
2013-08-26 05:53:00,59.7,59.1,30.07,North,0,0.0,-999.0,98,-99.99,,,0.00,Acu-Link.com,2013-08-26 09:53:00,
2013-08-26 06:08:00,59.5,58.9,30.07,North,0,0.0,-999.0,98,-99.99,,,0.00,Acu-Link.com,2013-08-26 10:08:00,
2013-08-26 06:23:00,59.5,58.9,30.06,North,0,0.0,-999.0,98,-99.99,,,0.00,Acu-Link.com,2013-08-26 10:23:00,
2013-08-26 06:39:00,59.5,58.9,30.06,North,0,0.0,-999.0,98,-99.99,,,0.00,Acu-Link.com,2013-08-26 10:39:00,
2013-08-26 06:54:00,59.2,58.6,30.08,North,0,0.0,-999.0,98,-99.99,,,0.00,Acu-Link.com,2013-08-26 10:54:00,
2013-08-26 07:09:00,59.4,58.8,30.08,North,0,0.0,-999.0,98,-99.99,,,0.00,Acu-Link.com,2013-08-26 11:09:00,
2013-08-26 07:25:00,59.4,58.8,30.08,North,0,0.0,-999.0,98,-99.99,,,0.00,Acu-Link.com,2013-08-26 11:25:00,
2013-08-26 07:40:00,59.5,58.9,30.09,North,0,0.0,-999.0,98,-99.99,,,0.00,Acu-Link.com,2013-08-26 11:40:00,
2013-08-26 07:55:00,60.4,59.8,30.08,North,0,0.0,-999.0,98,-99.99,,,0.00,Acu-Link.com,2013-08-26 11:55:00,
2013-08-26 08:11:00,62.1,61.5,30.09,ESE,112,0.0,-999.0,98,-99.99,,,0.00,Acu-Link.com,2013-08-26 12:11:00,
2013-08-26 08:26:00,62.6,62.0,30.09,East,90,0.0,-999.0,98,-99.99,,,0.00,Acu-Link.com,2013-08-26 12:26:00,
2013-08-26 08:41:00,63.5,62.9,30.09,North,0,2.2,-999.0,98,-99.99,,,0.00,Acu-Link.com,2013-08-26 12:41:00,
2013-08-26 08:56:00,64.2,63.6,30.09,NNW,337,0.0,-999.0,98,-99.99,,,0.00,Acu-Link.com,2013-08-26 12:56:00,
2013-08-26 09:11:00,65.7,65.1,30.09,NE,45,1.1,-999.0,98,-99.99,,,0.00,Acu-Link.com,2013-08-26 13:11:00,
2013-08-26 09:27:00,67.3,66.7,30.09,WSW,247,0.0,-999.0,98,-99.99,,,0.00,Acu-Link.com,2013-08-26 13:27:00,
2013-08-26 09:42:00,68.4,67.8,30.09,East,90,1.1,-999.0,98,-99.99,,,0.00,Acu-Link.com,2013-08-26 13:42:00,
2013-08-26 09:57:00,69.8,69.2,30.09,NNE,22,1.7,-999.0,98,-99.99,,,0.00,Acu-Link.com,2013-08-26 13:57:00,
2013-08-26 10:13:00,70.9,70.3,30.09,NNE,22,0.0,-999.0,98,-99.99,,,0.00,Acu-Link.com,2013-08-26 14:13:00,
2013-08-26 10:28:00,72.3,71.7,30.10,SSE,157,2.7,-999.0,98,-99.99,,,0.00,Acu-Link.com,2013-08-26 14:28:00,
2013-08-26 10:44:00,73.6,73.0,30.11,South,180,2.7,-999.0,98,-99.99,,,0.00,Acu-Link.com,2013-08-26 14:44:00,
2013-08-26 10:59:00,74.8,74.2,30.10,NNE,22,3.2,-999.0,98,-99.99,,,0.00,Acu-Link.com,2013-08-26 14:59:00,
2013-08-26 11:15:00,75.9,75.3,30.09,South,180,0.0,-999.0,98,-99.99,,,0.00,Acu-Link.com,2013-08-26 15:15:00,
2013-08-26 11:30:00,76.8,76.2,30.09,SW,225,1.7,-999.0,98,-99.99,,,0.00,Acu-Link.com,2013-08-26 15:30:00,
2013-08-26 11:45:00,77.7,77.1,30.09,South,180,2.7,-999.0,98,-99.99,,,0.00,Acu-Link.com,2013-08-26 15:45:00,
2013-08-26 12:00:00,78.6,78.0,30.08,South,180,2.7,-999.0,98,-99.99,,,0.00,Acu-Link.com,2013-08-26 16:00:00,
2013-08-26 12:15:00,80.1,79.5,30.07,SSW,202,1.7,-999.0,98,-99.99,,,0.00,Acu-Link.com,2013-08-26 16:15:00,
2013-08-26 12:31:00,80.1,79.5,30.06,SSE,157,3.2,-999.0,98,-99.99,,,0.00,Acu-Link.com,2013-08-26 16:31:00,
2013-08-26 12:46:00,82.2,80.6,30.05,SSE,157,3.2,-999.0,95,-99.99,,,0.00,Acu-Link.com,2013-08-26 16:46:00,
2013-08-26 13:01:00,82.4,81.8,30.06,North,0,2.2,-999.0,98,-99.99,,,0.00,Acu-Link.com,2013-08-26 17:01:00,
2013-08-26 13:16:00,83.5,78.5,30.04,SE,135,2.2,-999.0,85,-99.99,,,0.00,Acu-Link.com,2013-08-26 17:16:00,
2013-08-26 13:31:00,88.3,74.5,30.04,SSW,202,3.7,-999.0,64,-99.99,,,0.00,Acu-Link.com,2013-08-26 17:31:00,
2013-08-26 13:47:00,87.1,74.3,30.04,SE,135,0.0,-999.0,66,-99.99,,,0.00,Acu-Link.com,2013-08-26 17:47:00,
2013-08-26 14:02:00,93.0,73.9,30.02,NNE,22,0.0,-999.0,54,-99.99,,,0.00,Acu-Link.com,2013-08-26 18:02:00,
2013-08-26 14:17:00,90.1,72.8,30.01,North,0,1.1,-999.0,57,-99.99,,,0.00,Acu-Link.com,2013-08-26 18:17:00,
2013-08-26 14:32:00,89.6,73.3,30.01,SSW,202,4.7,-999.0,59,-99.99,,,0.00,Acu-Link.com,2013-08-26 18:32:00,
2013-08-26 14:48:00,92.5,72.8,30.00,WSW,247,2.2,-999.0,53,-99.99,,,0.00,Acu-Link.com,2013-08-26 18:48:00,
2013-08-26 15:03:00,91.8,73.3,29.99,ESE,112,1.7,-999.0,55,-99.99,,,0.00,Acu-Link.com,2013-08-26 19:03:00,
2013-08-26 15:18:00,90.3,73.5,29.98,NNE,22,1.7,-999.0,58,-99.99,,,0.00,Acu-Link.com,2013-08-26 19:18:00,
2013-08-26 15:34:00,90.5,70.4,29.98,NNW,337,2.7,-999.0,52,-99.99,,,0.00,Acu-Link.com,2013-08-26 19:34:00,
2013-08-26 15:49:00,90.7,71.2,29.98,NNW,337,1.1,-999.0,53,-99.99,,,0.00,Acu-Link.com,2013-08-26 19:49:00,
2013-08-26 16:04:00,95.7,71.6,29.96,SSW,202,2.2,-999.0,46,-99.99,,,0.00,Acu-Link.com,2013-08-26 20:04:00,
2013-08-26 16:19:00,97.0,71.4,29.95,NNW,337,1.1,-999.0,44,-99.99,,,0.00,Acu-Link.com,2013-08-26 20:19:00,
2013-08-26 16:34:00,94.8,70.7,29.95,NW,315,1.7,-999.0,46,-99.99,,,0.00,Acu-Link.com,2013-08-26 20:34:00,
2013-08-26 16:50:00,90.5,71.5,29.94,West,270,1.1,-999.0,54,-99.99,,,0.00,Acu-Link.com,2013-08-26 20:50:00,
2013-08-26 17:05:00,92.5,69.9,29.94,South,180,2.2,-999.0,48,-99.99,,,0.00,Acu-Link.com,2013-08-26 21:05:00,
2013-08-26 17:20:00,96.3,70.1,29.94,NNW,337,3.2,-999.0,43,-99.99,,,0.00,Acu-Link.com,2013-08-26 21:20:00,
2013-08-26 17:35:00,95.0,69.6,29.93,NW,315,1.7,-999.0,44,-99.99,,,0.00,Acu-Link.com,2013-08-26 21:35:00,
2013-08-26 17:50:00,89.2,69.2,29.93,South,180,3.7,-999.0,52,-99.99,,,0.00,Acu-Link.com,2013-08-26 21:50:00,
2013-08-26 18:05:00,86.4,71.3,29.93,SSE,157,1.1,-999.0,61,-99.99,,,0.00,Acu-Link.com,2013-08-26 22:05:00,
2013-08-26 18:20:00,84.6,71.5,29.92,SE,135,1.1,-999.0,65,-99.99,,,0.00,Acu-Link.com,2013-08-26 22:20:00,
2013-08-26 18:36:00,83.5,71.8,29.93,South,180,0.0,-999.0,68,-99.99,,,0.00,Acu-Link.com,2013-08-26 22:36:00,
2013-08-26 18:51:00,83.1,72.7,29.91,South,180,1.7,-999.0,71,-99.99,,,0.00,Acu-Link.com,2013-08-26 22:51:00,
2013-08-26 19:06:00,81.7,75.7,29.91,SSE,157,1.1,-999.0,82,-99.99,,,0.00,Acu-Link.com,2013-08-26 23:06:00,
2013-08-26 19:21:00,81.0,80.4,29.91,SSE,157,0.0,-999.0,98,-99.99,,,0.00,Acu-Link.com,2013-08-26 23:21:00,
2013-08-26 19:37:00,79.3,78.7,29.93,SSE,157,1.7,-999.0,98,-99.99,,,0.00,Acu-Link.com,2013-08-26 23:37:00,
2013-08-26 19:52:00,77.9,77.3,29.93,SSE,157,0.0,-999.0,98,-99.99,,,0.00,Acu-Link.com,2013-08-26 23:52:00,
2013-08-26 20:07:00,76.3,75.7,29.92,ESE,112,0.0,-999.0,98,-99.99,,,0.00,Acu-Link.com,2013-08-27 00:07:00,
2013-08-26 20:22:00,74.5,73.9,29.91,ESE,112,0.0,-999.0,98,-99.99,,,0.00,Acu-Link.com,2013-08-27 00:22:00,
2013-08-26 20:37:00,73.2,72.6,29.91,ESE,112,0.0,-999.0,98,-99.99,,,0.00,Acu-Link.com,2013-08-27 00:37:00,
2013-08-26 20:53:00,72.1,71.5,29.91,ESE,112,0.0,-999.0,98,-99.99,,,0.00,Acu-Link.com,2013-08-27 00:53:00,
2013-08-26 21:08:00,71.2,70.6,29.91,ESE,112,0.0,-999.0,98,-99.99,,,0.00,Acu-Link.com,2013-08-27 01:08:00,
2013-08-26 21:23:00,70.5,69.9,29.92,SE,135,0.0,-999.0,98,-99.99,,,0.00,Acu-Link.com,2013-08-27 01:23:00,
2013-08-26 21:38:00,69.8,69.2,29.93,ESE,112,0.0,-999.0,98,-99.99,,,0.00,Acu-Link.com,2013-08-27 01:38:00,
2013-08-26 21:54:00,68.9,68.3,29.93,ESE,112,0.0,-999.0,98,-99.99,,,0.00,Acu-Link.com,2013-08-27 01:54:00,
2013-08-26 22:09:00,68.5,67.9,29.92,ESE,112,0.0,-999.0,98,-99.99,,,0.00,Acu-Link.com,2013-08-27 02:09:00,
2013-08-26 22:24:00,68.0,67.4,29.93,North,0,0.0,-999.0,98,-99.99,,,0.00,Acu-Link.com,2013-08-27 02:24:00,
2013-08-26 22:39:00,67.6,67.0,29.93,North,0,0.0,-999.0,98,-99.99,,,0.00,Acu-Link.com,2013-08-27 02:39:00,
2013-08-26 22:54:00,67.3,66.7,29.93,North,0,0.0,-999.0,98,-99.99,,,0.00,Acu-Link.com,2013-08-27 02:54:00,
2013-08-26 23:09:00,66.9,66.3,29.93,North,0,0.0,-999.0,98,-99.99,,,0.00,Acu-Link.com,2013-08-27 03:09:00,
2013-08-26 23:25:00,66.7,66.1,29.94,North,0,0.0,-999.0,98,-99.99,,,0.00,Acu-Link.com,2013-08-27 03:25:00,
2013-08-26 23:40:00,66.6,66.0,29.94,North,0,0.0,-999.0,98,-99.99,,,0.00,Acu-Link.com,2013-08-27 03:40:00,
2013-08-26 23:55:00,66.2,65.6,29.94,SW,225,0.0,-999.0,98,-99.99,,,0.00,Acu-Link.com,2013-08-27 03:55:00,